sensor_id;sensor_type;location;lat;lon;timestamp;pressure;altitude;pressure_sealevel;temperature;humidity
71716;BME280;59568;52.128;5.434;2023-04-06T00:00:49;101988.22;;;0.61;77.66
71716;BME280;59568;52.128;5.434;2023-04-06T00:03:15;101989.19;;;0.60;77.59
71716;BME280;59568;52.128;5.434;2023-04-06T00:05:42;101990.19;;;0.59;77.59
71716;BME280;59568;52.128;5.434;2023-04-06T00:08:08;101986.22;;;0.56;78.18
71716;BME280;59568;52.128;5.434;2023-04-06T00:10:35;101980.47;;;0.54;77.89
71716;BME280;59568;52.128;5.434;2023-04-06T00:13:02;101979.06;;;0.52;78.07
71716;BME280;59568;52.128;5.434;2023-04-06T00:15:28;101981.03;;;0.50;78.16
71716;BME280;59568;52.128;5.434;2023-04-06T00:17:55;101980.44;;;0.48;78.25
71716;BME280;59568;52.128;5.434;2023-04-06T00:20:22;101973.91;;;0.45;78.15
71716;BME280;59568;52.128;5.434;2023-04-06T00:22:49;101978.25;;;0.45;78.31
71716;BME280;59568;52.128;5.434;2023-04-06T00:25:16;101981.00;;;0.43;78.69
71716;BME280;59568;52.128;5.434;2023-04-06T00:27:42;101977.81;;;0.41;79.33
71716;BME280;59568;52.128;5.434;2023-04-06T00:30:09;101967.13;;;0.37;79.30
71716;BME280;59568;52.128;5.434;2023-04-06T00:32:36;101969.09;;;0.35;79.11
71716;BME280;59568;52.128;5.434;2023-04-06T00:35:03;101961.56;;;0.34;79.88
71716;BME280;59568;52.128;5.434;2023-04-06T00:37:30;101963.34;;;0.33;79.61
71716;BME280;59568;52.128;5.434;2023-04-06T00:39:57;101957.59;;;0.31;79.49
71716;BME280;59568;52.128;5.434;2023-04-06T00:42:24;101957.97;;;0.28;79.63
71716;BME280;59568;52.128;5.434;2023-04-06T00:44:59;101950.44;;;0.27;79.87
71716;BME280;59568;52.128;5.434;2023-04-06T00:47:26;101945.31;;;0.27;79.93
71716;BME280;59568;52.128;5.434;2023-04-06T00:49:54;101938.56;;;0.26;79.85
71716;BME280;59568;52.128;5.434;2023-04-06T00:52:21;101936.19;;;0.24;80.06
71716;BME280;59568;52.128;5.434;2023-04-06T00:54:48;101943.28;;;0.22;80.10
71716;BME280;59568;52.128;5.434;2023-04-06T00:57:16;101936.56;;;0.21;79.66
71716;BME280;59568;52.128;5.434;2023-04-06T00:59:43;101941.09;;;0.19;79.92
71716;BME280;59568;52.128;5.434;2023-04-06T01:02:09;101938.72;;;0.17;79.89
71716;BME280;59568;52.128;5.434;2023-04-06T01:04:36;101934.38;;;0.18;80.13
71716;BME280;59568;52.128;5.434;2023-04-06T01:07:03;101930.22;;;0.17;80.48
71716;BME280;59568;52.128;5.434;2023-04-06T01:09:29;101925.88;;;0.17;80.28
71716;BME280;59568;52.128;5.434;2023-04-06T01:11:57;101923.47;;;0.16;80.74
71716;BME280;59568;52.128;5.434;2023-04-06T01:14:25;101923.47;;;0.16;80.21
71716;BME280;59568;52.128;5.434;2023-04-06T01:16:52;101908.88;;;0.16;80.51
71716;BME280;59568;52.128;5.434;2023-04-06T01:19:19;101913.19;;;0.16;80.61
71716;BME280;59568;52.128;5.434;2023-04-06T01:21:47;101904.53;;;0.17;80.07
71716;BME280;59568;52.128;5.434;2023-04-06T01:24:16;101916.38;;;0.18;80.27
71716;BME280;59568;52.128;5.434;2023-04-06T01:26:42;101911.84;;;0.20;80.63
71716;BME280;59568;52.128;5.434;2023-04-06T01:29:09;101911.66;;;0.22;80.47
71716;BME280;59568;52.128;5.434;2023-04-06T01:31:37;101901.19;;;0.23;80.91
71716;BME280;59568;52.128;5.434;2023-04-06T01:34:04;101902.56;;;0.26;81.02
71716;BME280;59568;52.128;5.434;2023-04-06T01:36:31;101903.38;;;0.26;80.60
71716;BME280;59568;52.128;5.434;2023-04-06T01:38:57;101900.44;;;0.29;80.90
71716;BME280;59568;52.128;5.434;2023-04-06T01:41:24;101901.81;;;0.32;80.80
71716;BME280;59568;52.128;5.434;2023-04-06T01:43:50;101895.53;;;0.34;81.03
71716;BME280;59568;52.128;5.434;2023-04-06T01:46:20;101890.97;;;0.36;81.14
71716;BME280;59568;52.128;5.434;2023-04-06T01:48:47;101891.59;;;0.38;81.42
71716;BME280;59568;52.128;5.434;2023-04-06T01:51:13;101879.13;;;0.42;81.53
71716;BME280;59568;52.128;5.434;2023-04-06T01:53:40;101879.53;;;0.46;81.85
71716;BME280;59568;52.128;5.434;2023-04-06T01:56:06;101879.94;;;0.49;81.85
71716;BME280;59568;52.128;5.434;2023-04-06T01:58:33;101875.81;;;0.55;81.79
71716;BME280;59568;52.128;5.434;2023-04-06T02:00:59;101875.84;;;0.62;82.39
71716;BME280;59568;52.128;5.434;2023-04-06T02:03:26;101868.72;;;0.64;82.53
71716;BME280;59568;52.128;5.434;2023-04-06T02:05:53;101873.28;;;0.68;82.38
71716;BME280;59568;52.128;5.434;2023-04-06T02:08:19;101861.63;;;0.72;82.46
71716;BME280;59568;52.128;5.434;2023-04-06T02:10:46;101862.03;;;0.76;82.13
71716;BME280;59568;52.128;5.434;2023-04-06T02:13:12;101860.47;;;0.82;82.02
71716;BME280;59568;52.128;5.434;2023-04-06T02:15:39;101852.97;;;0.87;82.16
71716;BME280;59568;52.128;5.434;2023-04-06T02:18:06;101856.72;;;0.91;82.19
71716;BME280;59568;52.128;5.434;2023-04-06T02:20:32;101852.97;;;0.93;82.17
71716;BME280;59568;52.128;5.434;2023-04-06T02:22:59;101846.25;;;0.99;81.83
71716;BME280;59568;52.128;5.434;2023-04-06T02:25:26;101844.66;;;1.05;81.57
71716;BME280;59568;52.128;5.434;2023-04-06T02:27:53;101842.28;;;1.10;81.96
71716;BME280;59568;52.128;5.434;2023-04-06T02:30:20;101837.53;;;1.13;81.62
71716;BME280;59568;52.128;5.434;2023-04-06T02:32:46;101831.00;;;1.17;81.67
71716;BME280;59568;52.128;5.434;2023-04-06T02:35:13;101840.91;;;1.20;81.76
71716;BME280;59568;52.128;5.434;2023-04-06T02:37:39;101836.94;;;1.25;81.36
71716;BME280;59568;52.128;5.434;2023-04-06T02:40:06;101836.38;;;1.29;81.14
71716;BME280;59568;52.128;5.434;2023-04-06T02:42:33;101828.81;;;1.34;80.67
71716;BME280;59568;52.128;5.434;2023-04-06T02:45:01;101833.41;;;1.39;80.53
71716;BME280;59568;52.128;5.434;2023-04-06T02:47:28;101828.63;;;1.43;80.51
71716;BME280;59568;52.128;5.434;2023-04-06T02:49:54;101821.28;;;1.46;80.50
71716;BME280;59568;52.128;5.434;2023-04-06T02:52:21;101817.31;;;1.50;80.88
71716;BME280;59568;52.128;5.434;2023-04-06T02:54:48;101814.34;;;1.53;80.88
71716;BME280;59568;52.128;5.434;2023-04-06T02:57:14;101811.16;;;1.58;81.08
71716;BME280;59568;52.128;5.434;2023-04-06T02:59:41;101812.34;;;1.62;80.56
71716;BME280;59568;52.128;5.434;2023-04-06T03:02:07;101805.03;;;1.66;80.10
71716;BME280;59568;52.128;5.434;2023-04-06T03:04:34;101810.75;;;1.68;80.93
71716;BME280;59568;52.128;5.434;2023-04-06T03:07:00;101805.00;;;1.72;80.51
71716;BME280;59568;52.128;5.434;2023-04-06T03:09:27;101806.38;;;1.75;80.93
71716;BME280;59568;52.128;5.434;2023-04-06T03:11:54;101796.66;;;1.77;81.07
71716;BME280;59568;52.128;5.434;2023-04-06T03:14:21;101805.56;;;1.81;81.06
71716;BME280;59568;52.128;5.434;2023-04-06T03:16:48;101799.81;;;1.86;80.12
71716;BME280;59568;52.128;5.434;2023-04-06T03:19:18;101802.56;;;1.91;79.49
71716;BME280;59568;52.128;5.434;2023-04-06T03:21:44;101796.22;;;1.93;79.33
71716;BME280;59568;52.128;5.434;2023-04-06T03:24:12;101797.59;;;1.96;78.60
71716;BME280;59568;52.128;5.434;2023-04-06T03:26:39;101787.88;;;1.98;78.39
71716;BME280;59568;52.128;5.434;2023-04-06T03:29:06;101791.44;;;2.04;78.03
71716;BME280;59568;52.128;5.434;2023-04-06T03:31:33;101785.06;;;2.06;77.76
71716;BME280;59568;52.128;5.434;2023-04-06T03:34:00;101786.44;;;2.09;77.40
71716;BME280;59568;52.128;5.434;2023-04-06T03:36:26;101786.63;;;2.14;77.42
71716;BME280;59568;52.128;5.434;2023-04-06T03:38:53;101786.19;;;2.17;76.98
71716;BME280;59568;52.128;5.434;2023-04-06T03:41:20;101785.81;;;2.20;76.85
71716;BME280;59568;52.128;5.434;2023-04-06T03:43:47;101780.81;;;2.25;76.92
71716;BME280;59568;52.128;5.434;2023-04-06T03:46:13;101784.97;;;2.26;76.58
71716;BME280;59568;52.128;5.434;2023-04-06T03:48:40;101777.03;;;2.28;76.11
71716;BME280;59568;52.128;5.434;2023-04-06T03:51:06;101771.66;;;2.29;76.01
71716;BME280;59568;52.128;5.434;2023-04-06T03:53:33;101770.47;;;2.32;76.02
71716;BME280;59568;52.128;5.434;2023-04-06T03:56:00;101774.63;;;2.33;76.41
71716;BME280;59568;52.128;5.434;2023-04-06T03:58:29;101767.09;;;2.31;76.08
71716;BME280;59568;52.128;5.434;2023-04-06T04:00:56;101768.69;;;2.32;76.02
71716;BME280;59568;52.128;5.434;2023-04-06T04:03:23;101770.25;;;2.33;76.11
71716;BME280;59568;52.128;5.434;2023-04-06T04:05:54;101767.66;;;2.33;76.15
71716;BME280;59568;52.128;5.434;2023-04-06T04:08:24;101777.41;;;2.31;76.52
71716;BME280;59568;52.128;5.434;2023-04-06T04:10:51;101767.09;;;2.31;76.47
71716;BME280;59568;52.128;5.434;2023-04-06T04:13:17;101767.09;;;2.31;76.60
71716;BME280;59568;52.128;5.434;2023-04-06T04:15:44;101763.72;;;2.31;76.63
71716;BME280;59568;52.128;5.434;2023-04-06T04:18:11;101769.66;;;2.31;76.37
71716;BME280;59568;52.128;5.434;2023-04-06T04:20:38;101765.53;;;2.30;76.42
71716;BME280;59568;52.128;5.434;2023-04-06T04:23:04;101767.50;;;2.28;76.56
71716;BME280;59568;52.128;5.434;2023-04-06T04:25:31;101768.13;;;2.24;76.85
71716;BME280;59568;52.128;5.434;2023-04-06T04:27:57;101765.75;;;2.22;76.53
71716;BME280;59568;52.128;5.434;2023-04-06T04:30:24;101763.19;;;2.22;76.67
71716;BME280;59568;52.128;5.434;2023-04-06T04:32:51;101764.16;;;2.21;76.44
71716;BME280;59568;52.128;5.434;2023-04-06T04:35:17;101765.19;;;2.20;76.83
71716;BME280;59568;52.128;5.434;2023-04-06T04:37:44;101766.75;;;2.21;76.67
71716;BME280;59568;52.128;5.434;2023-04-06T04:40:11;101761.59;;;2.21;76.83
71716;BME280;59568;52.128;5.434;2023-04-06T04:42:37;101770.34;;;2.20;76.52
71716;BME280;59568;52.128;5.434;2023-04-06T04:45:04;101764.41;;;2.19;76.65
71716;BME280;59568;52.128;5.434;2023-04-06T04:47:31;101765.56;;;2.17;76.46
71716;BME280;59568;52.128;5.434;2023-04-06T04:49:58;101765.81;;;2.15;76.36
71716;BME280;59568;52.128;5.434;2023-04-06T04:52:24;101762.22;;;2.16;76.81
71716;BME280;59568;52.128;5.434;2023-04-06T04:54:51;101762.00;;;2.18;76.27
71716;BME280;59568;52.128;5.434;2023-04-06T04:57:18;101770.91;;;2.22;76.16
71716;BME280;59568;52.128;5.434;2023-04-06T04:59:44;101761.97;;;2.25;75.63
71716;BME280;59568;52.128;5.434;2023-04-06T05:02:11;101756.63;;;2.26;75.61
71716;BME280;59568;52.128;5.434;2023-04-06T05:04:38;101764.75;;;2.30;75.80
71716;BME280;59568;52.128;5.434;2023-04-06T05:07:06;101758.38;;;2.32;75.82
71716;BME280;59568;52.128;5.434;2023-04-06T05:09:33;101754.38;;;2.36;75.95
71716;BME280;59568;52.128;5.434;2023-04-06T05:12:00;101761.28;;;2.43;75.79
71716;BME280;59568;52.128;5.434;2023-04-06T05:14:27;101754.72;;;2.47;76.16
71716;BME280;59568;52.128;5.434;2023-04-06T05:16:54;101758.25;;;2.52;75.71
71716;BME280;59568;52.128;5.434;2023-04-06T05:19:21;101748.66;;;2.59;75.56
71716;BME280;59568;52.128;5.434;2023-04-06T05:21:47;101753.38;;;2.69;75.57
71716;BME280;59568;52.128;5.434;2023-04-06T05:24:14;101753.69;;;2.79;75.22
71716;BME280;59568;52.128;5.434;2023-04-06T05:26:41;101745.66;;;2.88;75.15
71716;BME280;59568;52.128;5.434;2023-04-06T05:29:08;101746.78;;;2.98;75.03
71716;BME280;59568;52.128;5.434;2023-04-06T05:31:35;101746.31;;;3.08;74.63
71716;BME280;59568;52.128;5.434;2023-04-06T05:34:01;101751.00;;;3.18;74.69
71716;BME280;59568;52.128;5.434;2023-04-06T05:36:28;101749.91;;;3.26;74.21
71716;BME280;59568;52.128;5.434;2023-04-06T05:38:56;101750.44;;;3.34;74.37
71716;BME280;59568;52.128;5.434;2023-04-06T05:41:23;101743.78;;;3.45;74.30
71716;BME280;59568;52.128;5.434;2023-04-06T05:43:50;101743.06;;;3.56;74.02
71716;BME280;59568;52.128;5.434;2023-04-06T05:46:16;101744.91;;;3.68;74.22
71716;BME280;59568;52.128;5.434;2023-04-06T05:48:43;101741.63;;;3.79;73.82
71716;BME280;59568;52.128;5.434;2023-04-06T05:51:09;101741.88;;;3.89;73.79
71716;BME280;59568;52.128;5.434;2023-04-06T05:53:36;101739.16;;;4.03;73.38
71716;BME280;59568;52.128;5.434;2023-04-06T05:56:04;101738.94;;;4.16;73.19
71716;BME280;59568;52.128;5.434;2023-04-06T05:58:31;101747.41;;;4.23;73.40
71716;BME280;59568;52.128;5.434;2023-04-06T06:00:59;101735.75;;;4.32;72.66
71716;BME280;59568;52.128;5.434;2023-04-06T06:03:26;101737.78;;;4.42;72.67
71716;BME280;59568;52.128;5.434;2023-04-06T06:05:52;101730.75;;;4.61;72.68
71716;BME280;59568;52.128;5.434;2023-04-06T06:08:19;101728.97;;;4.97;72.32
71716;BME280;59568;52.128;5.434;2023-04-06T06:10:46;101729.31;;;5.12;71.96
71716;BME280;59568;52.128;5.434;2023-04-06T06:13:12;101733.94;;;5.10;71.24
71716;BME280;59568;52.128;5.434;2023-04-06T06:15:39;101730.91;;;5.13;71.18
71716;BME280;59568;52.128;5.434;2023-04-06T06:18:05;101725.03;;;5.30;71.13
71716;BME280;59568;52.128;5.434;2023-04-06T06:20:33;101730.28;;;5.47;70.75
71716;BME280;59568;52.128;5.434;2023-04-06T06:23:00;101730.94;;;5.54;70.19
71716;BME280;59568;52.128;5.434;2023-04-06T06:25:26;101729.72;;;5.45;70.09
71716;BME280;59568;52.128;5.434;2023-04-06T06:27:53;101720.84;;;5.29;70.15
71716;BME280;59568;52.128;5.434;2023-04-06T06:30:20;101724.56;;;5.21;70.43
71716;BME280;59568;52.128;5.434;2023-04-06T06:32:49;101728.88;;;5.15;70.63
71716;BME280;59568;52.128;5.434;2023-04-06T06:35:16;101729.88;;;5.14;70.61
71716;BME280;59568;52.128;5.434;2023-04-06T06:37:43;101729.19;;;5.19;71.21
71716;BME280;59568;52.128;5.434;2023-04-06T06:40:10;101731.13;;;5.24;71.20
71716;BME280;59568;52.128;5.434;2023-04-06T06:42:39;101725.03;;;5.30;71.18
71716;BME280;59568;52.128;5.434;2023-04-06T06:45:07;101729.38;;;5.41;71.37
71716;BME280;59568;52.128;5.434;2023-04-06T06:47:34;101727.31;;;5.55;71.17
71716;BME280;59568;52.128;5.434;2023-04-06T06:50:00;101719.63;;;5.72;71.62
71716;BME280;59568;52.128;5.434;2023-04-06T06:52:29;101723.38;;;5.93;71.67
71716;BME280;59568;52.128;5.434;2023-04-06T06:54:55;101728.41;;;6.11;71.54
71716;BME280;59568;52.128;5.434;2023-04-06T06:57:23;101732.94;;;6.33;71.68
71716;BME280;59568;52.128;5.434;2023-04-06T06:59:49;101729.56;;;6.49;70.92
71716;BME280;59568;52.128;5.434;2023-04-06T07:02:16;101728.84;;;6.71;71.22
71716;BME280;59568;52.128;5.434;2023-04-06T07:04:42;101726.31;;;6.93;70.56
71716;BME280;59568;52.128;5.434;2023-04-06T07:07:09;101730.56;;;6.99;69.28
71716;BME280;59568;52.128;5.434;2023-04-06T07:09:36;101721.44;;;6.96;69.02
71716;BME280;59568;52.128;5.434;2023-04-06T07:12:03;101725.59;;;6.97;68.67
71716;BME280;59568;52.128;5.434;2023-04-06T07:14:29;101720.88;;;6.94;69.17
71716;BME280;59568;52.128;5.434;2023-04-06T07:16:56;101715.38;;;6.91;69.09
71716;BME280;59568;52.128;5.434;2023-04-06T07:19:22;101716.38;;;6.90;68.83
71716;BME280;59568;52.128;5.434;2023-04-06T07:21:49;101716.66;;;6.88;68.91
71716;BME280;59568;52.128;5.434;2023-04-06T07:24:15;101716.09;;;6.86;68.55
71716;BME280;59568;52.128;5.434;2023-04-06T07:26:43;101709.31;;;6.85;68.75
71716;BME280;59568;52.128;5.434;2023-04-06T07:29:10;101703.81;;;6.82;68.62
71716;BME280;59568;52.128;5.434;2023-04-06T07:31:36;101697.84;;;6.81;68.58
71716;BME280;59568;52.128;5.434;2023-04-06T07:34:03;101708.94;;;6.76;68.43
71716;BME280;59568;52.128;5.434;2023-04-06T07:36:30;101714.38;;;6.75;68.13
71716;BME280;59568;52.128;5.434;2023-04-06T07:38:57;101712.56;;;6.75;67.98
71716;BME280;59568;52.128;5.434;2023-04-06T07:41:23;101710.03;;;6.80;68.09
71716;BME280;59568;52.128;5.434;2023-04-06T07:43:51;101703.34;;;6.85;68.69
71716;BME280;59568;52.128;5.434;2023-04-06T07:46:17;101709.16;;;6.92;68.65
71716;BME280;59568;52.128;5.434;2023-04-06T07:48:44;101711.81;;;6.97;68.51
71716;BME280;59568;52.128;5.434;2023-04-06T07:51:11;101709.00;;;6.98;67.78
71716;BME280;59568;52.128;5.434;2023-04-06T07:53:40;101716.84;;;7.04;68.07
71716;BME280;59568;52.128;5.434;2023-04-06T07:56:07;101711.97;;;7.07;67.65
71716;BME280;59568;52.128;5.434;2023-04-06T07:58:33;101708.63;;;7.12;67.65
71716;BME280;59568;52.128;5.434;2023-04-06T08:01:01;101712.94;;;7.23;68.38
71716;BME280;59568;52.128;5.434;2023-04-06T08:03:27;101710.72;;;7.32;68.18
71716;BME280;59568;52.128;5.434;2023-04-06T08:05:57;101710.81;;;7.42;67.39
71716;BME280;59568;52.128;5.434;2023-04-06T08:08:23;101715.13;;;7.53;67.02
71716;BME280;59568;52.128;5.434;2023-04-06T08:10:50;101711.09;;;7.63;67.01
71716;BME280;59568;52.128;5.434;2023-04-06T08:13:16;101713.28;;;7.76;67.00
71716;BME280;59568;52.128;5.434;2023-04-06T08:15:43;101716.72;;;7.82;66.22
71716;BME280;59568;52.128;5.434;2023-04-06T08:18:11;101715.00;;;7.92;66.08
71716;BME280;59568;52.128;5.434;2023-04-06T08:20:39;101713.31;;;8.03;66.48
71716;BME280;59568;52.128;5.434;2023-04-06T08:23:06;101711.56;;;8.14;66.43
71716;BME280;59568;52.128;5.434;2023-04-06T08:25:35;101709.56;;;8.21;65.95
71716;BME280;59568;52.128;5.434;2023-04-06T08:28:03;101711.72;;;8.29;65.56
71716;BME280;59568;52.128;5.434;2023-04-06T08:30:30;101713.06;;;8.37;65.66
71716;BME280;59568;52.128;5.434;2023-04-06T08:32:56;101708.22;;;8.46;64.95
71716;BME280;59568;52.128;5.434;2023-04-06T08:35:23;101708.78;;;8.53;65.00
71716;BME280;59568;52.128;5.434;2023-04-06T08:37:50;101704.09;;;8.55;64.77
71716;BME280;59568;52.128;5.434;2023-04-06T08:40:16;101702.09;;;8.62;65.23
71716;BME280;59568;52.128;5.434;2023-04-06T08:42:50;101694.84;;;8.69;64.59
71716;BME280;59568;52.128;5.434;2023-04-06T08:45:17;101689.13;;;8.72;64.29
71716;BME280;59568;52.128;5.434;2023-04-06T08:47:51;101699.31;;;8.79;64.35
71716;BME280;59568;52.128;5.434;2023-04-06T08:50:18;101697.53;;;8.85;64.22
71716;BME280;59568;52.128;5.434;2023-04-06T08:52:47;101695.75;;;8.90;63.83
71716;BME280;59568;52.128;5.434;2023-04-06T08:55:14;101695.78;;;9.00;64.37
71716;BME280;59568;52.128;5.434;2023-04-06T08:57:42;101704.97;;;9.13;63.67
71716;BME280;59568;52.128;5.434;2023-04-06T09:00:10;101699.53;;;9.20;63.91
71716;BME280;59568;52.128;5.434;2023-04-06T09:02:42;101704.53;;;9.27;63.75
71716;BME280;59568;52.128;5.434;2023-04-06T09:05:09;101700.41;;;9.36;64.15
71716;BME280;59568;52.128;5.434;2023-04-06T09:07:37;101694.19;;;9.52;64.26
71716;BME280;59568;52.128;5.434;2023-04-06T09:10:05;101702.53;;;9.59;63.24
71716;BME280;59568;52.128;5.434;2023-04-06T09:12:34;101702.84;;;9.68;63.16
71716;BME280;59568;52.128;5.434;2023-04-06T09:15:01;101705.75;;;9.82;63.88
71716;BME280;59568;52.128;5.434;2023-04-06T09:17:30;101706.28;;;10.10;64.00
71716;BME280;59568;52.128;5.434;2023-04-06T09:20:00;101707.34;;;10.24;62.34
71716;BME280;59568;52.128;5.434;2023-04-06T09:22:38;101703.94;;;10.29;62.68
71716;BME280;59568;52.128;5.434;2023-04-06T09:25:06;101703.72;;;10.35;62.40
71716;BME280;59568;52.128;5.434;2023-04-06T09:27:34;101701.63;;;10.53;61.95
71716;BME280;59568;52.128;5.434;2023-04-06T09:32:44;101701.09;;;10.61;61.62
71716;BME280;59568;52.128;5.434;2023-04-06T09:35:12;101700.31;;;10.61;61.22
71716;BME280;59568;52.128;5.434;2023-04-06T09:37:44;101701.88;;;10.67;61.48
71716;BME280;59568;52.128;5.434;2023-04-06T09:40:12;101700.53;;;10.64;60.52
71716;BME280;59568;52.128;5.434;2023-04-06T09:42:45;101701.34;;;10.65;61.38
71716;BME280;59568;52.128;5.434;2023-04-06T09:45:13;101703.69;;;10.71;61.78
71716;BME280;59568;52.128;5.434;2023-04-06T09:47:44;101709.13;;;10.80;61.25
71716;BME280;59568;52.128;5.434;2023-04-06T09:50:12;101701.81;;;10.82;61.20
71716;BME280;59568;52.128;5.434;2023-04-06T09:52:48;101703.66;;;10.87;61.03
71716;BME280;59568;52.128;5.434;2023-04-06T09:55:42;101708.34;;;10.90;60.80
71716;BME280;59568;52.128;5.434;2023-04-06T09:58:12;101701.75;;;11.03;60.62
71716;BME280;59568;52.128;5.434;2023-04-06T10:05:55;101696.06;;;11.50;61.09
71716;BME280;59568;52.128;5.434;2023-04-06T10:08:27;101696.88;;;11.46;60.25
71716;BME280;59568;52.128;5.434;2023-04-06T10:10:58;101698.94;;;11.49;60.78
71716;BME280;59568;52.128;5.434;2023-04-06T10:13:25;101709.09;;;11.66;61.09
71716;BME280;59568;52.128;5.434;2023-04-06T10:15:52;101707.50;;;11.65;60.89
71716;BME280;59568;52.128;5.434;2023-04-06T10:18:19;101711.72;;;11.60;60.91
71716;BME280;59568;52.128;5.434;2023-04-06T10:20:53;101703.03;;;11.70;61.40
71716;BME280;59568;52.128;5.434;2023-04-06T10:23:35;101711.44;;;11.67;61.30
71716;BME280;59568;52.128;5.434;2023-04-06T10:26:02;101708.78;;;11.72;62.23
71716;BME280;59568;52.128;5.434;2023-04-06T10:28:34;101705.84;;;11.79;62.80
71716;BME280;59568;52.128;5.434;2023-04-06T10:31:05;101708.97;;;11.81;62.77
71716;BME280;59568;52.128;5.434;2023-04-06T10:33:32;101705.81;;;11.84;62.84
71716;BME280;59568;52.128;5.434;2023-04-06T10:36:15;101703.97;;;11.90;62.59
71716;BME280;59568;52.128;5.434;2023-04-06T10:38:59;101706.00;;;11.53;62.16
71716;BME280;59568;52.128;5.434;2023-04-06T10:41:33;101707.66;;;11.34;63.46
71716;BME280;59568;52.128;5.434;2023-04-06T10:44:00;101703.50;;;11.28;65.02
71716;BME280;59568;52.128;5.434;2023-04-06T10:46:29;101707.72;;;11.24;66.15
71716;BME280;59568;52.128;5.434;2023-04-06T10:48:56;101698.06;;;11.14;66.58
71716;BME280;59568;52.128;5.434;2023-04-06T10:51:27;101706.16;;;11.12;67.92
71716;BME280;59568;52.128;5.434;2023-04-06T10:53:55;101697.28;;;11.13;68.72
71716;BME280;59568;52.128;5.434;2023-04-06T10:56:24;101697.84;;;11.05;69.28
71716;BME280;59568;52.128;5.434;2023-04-06T10:58:54;101700.94;;;11.12;70.38
71716;BME280;59568;52.128;5.434;2023-04-06T11:01:24;101709.34;;;11.09;70.21
71716;BME280;59568;52.128;5.434;2023-04-06T11:03:55;101703.09;;;10.90;70.08
71716;BME280;59568;52.128;5.434;2023-04-06T11:06:23;101698.97;;;10.63;70.40
71716;BME280;59568;52.128;5.434;2023-04-06T11:08:53;101697.19;;;10.43;71.77
71716;BME280;59568;52.128;5.434;2023-04-06T11:11:21;101694.53;;;10.48;72.57
71716;BME280;59568;52.128;5.434;2023-04-06T11:16:23;101694.03;;;10.36;72.87
71716;BME280;59568;52.128;5.434;2023-04-06T11:18:58;101687.78;;;10.32;74.38
71716;BME280;59568;52.128;5.434;2023-04-06T11:21:51;101686.47;;;10.34;74.99
71716;BME280;59568;52.128;5.434;2023-04-06T11:24:22;101687.25;;;10.25;74.54
71716;BME280;59568;52.128;5.434;2023-04-06T11:26:51;101683.56;;;10.15;75.12
71716;BME280;59568;52.128;5.434;2023-04-06T11:29:20;101680.69;;;10.22;75.51
71716;BME280;59568;52.128;5.434;2023-04-06T11:31:49;101675.47;;;10.27;76.19
71716;BME280;59568;52.128;5.434;2023-04-06T11:34:20;101675.75;;;10.41;76.83
71716;BME280;59568;52.128;5.434;2023-04-06T11:36:48;101675.75;;;10.41;75.61
71716;BME280;59568;52.128;5.434;2023-04-06T11:39:21;101681.22;;;10.29;75.84
71716;BME280;59568;52.128;5.434;2023-04-06T11:41:48;101672.38;;;10.41;76.83
71716;BME280;59568;52.128;5.434;2023-04-06T11:44:36;101674.97;;;10.41;76.39
71716;BME280;59568;52.128;5.434;2023-04-06T11:47:10;101658.78;;;10.38;76.28
71716;BME280;59568;52.128;5.434;2023-04-06T11:49:39;101663.47;;;10.31;76.50
71716;BME280;59568;52.128;5.434;2023-04-06T11:52:24;101664.53;;;10.41;77.06
71716;BME280;59568;52.128;5.434;2023-04-06T11:54:52;101660.84;;;10.52;76.83
71716;BME280;59568;52.128;5.434;2023-04-06T11:57:21;101661.38;;;10.44;76.32
71716;BME280;59568;52.128;5.434;2023-04-06T11:59:49;101650.94;;;10.49;77.05
71716;BME280;59568;52.128;5.434;2023-04-06T12:02:16;101655.63;;;10.47;76.65
71716;BME280;59568;52.128;5.434;2023-04-06T12:04:44;101654.03;;;10.61;77.28
71716;BME280;59568;52.128;5.434;2023-04-06T12:07:11;101646.19;;;10.61;76.79
71716;BME280;59568;52.128;5.434;2023-04-06T12:09:37;101652.47;;;10.65;76.76
71716;BME280;59568;52.128;5.434;2023-04-06T12:12:05;101638.31;;;10.66;76.76
71716;BME280;59568;52.128;5.434;2023-04-06T12:14:31;101638.34;;;10.56;76.55
71716;BME280;59568;52.128;5.434;2023-04-06T12:16:58;101650.38;;;10.52;77.07
71716;BME280;59568;52.128;5.434;2023-04-06T12:19:24;101636.50;;;10.62;77.35
71716;BME280;59568;52.128;5.434;2023-04-06T12:21:53;101635.19;;;10.64;76.94
71716;BME280;59568;52.128;5.434;2023-04-06T12:24:20;101631.56;;;10.55;77.70
71716;BME280;59568;52.128;5.434;2023-04-06T12:26:47;101636.03;;;10.54;77.49
71716;BME280;59568;52.128;5.434;2023-04-06T12:29:19;101628.94;;;10.60;77.51
71716;BME280;59568;52.128;5.434;2023-04-06T12:31:46;101627.66;;;10.63;77.78
71716;BME280;59568;52.128;5.434;2023-04-06T12:34:12;101628.69;;;10.62;77.25
71716;BME280;59568;52.128;5.434;2023-04-06T12:36:39;101631.56;;;10.55;76.66
71716;BME280;59568;52.128;5.434;2023-04-06T12:39:06;101630.81;;;10.49;77.25
71716;BME280;59568;52.128;5.434;2023-04-06T12:41:35;101627.94;;;10.51;77.47
71716;BME280;59568;52.128;5.434;2023-04-06T12:44:07;101624.00;;;10.38;77.48
71716;BME280;59568;52.128;5.434;2023-04-06T12:46:34;101620.63;;;10.27;78.10
71716;BME280;59568;52.128;5.434;2023-04-06T12:49:01;101625.59;;;10.18;78.37
71716;BME280;59568;52.128;5.434;2023-04-06T12:51:29;101628.19;;;10.13;78.78
71716;BME280;59568;52.128;5.434;2023-04-06T12:53:57;101615.41;;;10.07;79.05
71716;BME280;59568;52.128;5.434;2023-04-06T12:56:24;101620.38;;;10.08;79.09
71716;BME280;59568;52.128;5.434;2023-04-06T12:58:51;101608.13;;;9.98;78.79
71716;BME280;59568;52.128;5.434;2023-04-06T13:01:19;101615.41;;;10.02;79.55
71716;BME280;59568;52.128;5.434;2023-04-06T13:03:46;101603.41;;;10.11;79.38
71716;BME280;59568;52.128;5.434;2023-04-06T13:06:13;101606.00;;;10.11;79.59
71716;BME280;59568;52.128;5.434;2023-04-06T13:08:41;101600.28;;;10.09;79.11
71716;BME280;59568;52.128;5.434;2023-04-06T13:11:09;101600.78;;;10.06;79.54